createdAt,value
2023-02-19T17:08:33.516Z,98297.59
2023-02-19T17:11:01.250Z,98299.91
2023-02-19T17:13:28.459Z,98294.00
2023-02-19T17:15:55.659Z,98309.38
2023-02-19T17:18:22.940Z,98304.94
2023-02-19T17:20:51.167Z,98310.84
2023-02-19T17:23:18.363Z,98315.50
2023-02-19T17:25:47.037Z,98322.47
2023-02-19T17:28:14.215Z,98317.72
2023-02-19T17:30:41.590Z,98326.25
2023-02-19T17:33:08.788Z,98334.72
2023-02-19T17:35:35.924Z,98339.22
2023-02-19T17:38:03.159Z,98338.94
2023-02-19T17:40:33.392Z,98345.84
2023-02-19T17:43:02.334Z,98349.72
2023-02-19T17:45:29.575Z,98347.97
2023-02-19T17:47:56.706Z,98350.91
2023-02-19T17:50:25.196Z,98359.56
2023-02-19T17:52:52.473Z,98371.00
2023-02-19T17:55:19.675Z,98367.22
2023-02-19T17:57:46.916Z,98371.47
2023-02-19T18:00:16.651Z,98370.94
2023-02-19T18:02:43.776Z,98373.31
2023-02-19T18:05:10.975Z,98366.06
2023-02-19T18:07:38.193Z,98375.41
2023-02-19T18:10:06.632Z,98375.81
2023-02-19T18:12:33.873Z,98375.59
2023-02-19T18:15:01.023Z,98382.50
2023-02-19T18:17:29.664Z,98387.19
2023-02-19T18:19:56.836Z,98385.75
2023-02-19T18:22:23.971Z,98383.53
2023-02-19T18:24:51.853Z,98382.50
2023-02-19T18:27:19.332Z,98384.75
2023-02-19T18:29:49.748Z,98389.00
2023-02-19T18:32:16.903Z,98398.75
2023-02-19T18:34:48.784Z,98400.59
2023-02-19T18:37:16.146Z,98397.09
2023-02-19T18:39:43.309Z,98395.09
2023-02-19T18:42:10.529Z,98386.97
2023-02-19T18:44:37.687Z,98386.75
2023-02-19T18:47:04.974Z,98386.16
2023-02-19T18:49:32.210Z,98388.59
2023-02-19T18:52:00.811Z,98388.78
2023-02-19T18:54:28.026Z,98385.50
2023-02-19T18:56:55.320Z,98385.88
2023-02-19T18:59:22.579Z,98381.59
2023-02-19T19:01:49.858Z,98388.09
2023-02-19T19:04:17.123Z,98389.13
2023-02-19T19:06:44.340Z,98387.66
2023-02-19T19:09:13.022Z,98392.53
2023-02-19T19:11:40.270Z,98388.97
2023-02-19T19:14:07.698Z,98393.81
2023-02-19T19:16:34.909Z,98394.25
2023-02-19T19:19:02.094Z,98394.22
2023-02-19T19:21:29.258Z,98401.50
2023-02-19T19:23:56.576Z,98401.97
2023-02-19T19:26:25.216Z,98411.50
2023-02-19T19:28:52.625Z,98412.06
2023-02-19T19:31:19.976Z,98401.19
2023-02-19T19:33:47.396Z,98409.50
2023-02-19T19:36:14.696Z,98423.28
2023-02-19T19:38:41.845Z,98425.53
2023-02-19T19:41:09.097Z,98423.84
2023-02-19T19:43:37.755Z,98425.88
2023-02-19T19:46:05.309Z,98424.44
2023-02-19T19:48:32.538Z,98426.63
2023-02-19T19:50:59.708Z,98416.00
2023-02-19T19:53:26.875Z,98428.75
2023-02-19T19:55:53.953Z,98417.91
2023-02-19T19:58:21.182Z,98412.31
2023-02-19T20:00:49.748Z,98406.56
2023-02-19T20:03:16.960Z,98412.81
2023-02-19T20:05:44.342Z,98402.16
2023-02-19T20:08:11.493Z,98396.91
2023-02-19T20:10:38.673Z,98394.97
2023-02-19T20:13:05.959Z,98397.13
2023-02-19T20:15:33.264Z,98397.72
2023-02-19T20:18:01.957Z,98400.78
2023-02-19T20:20:29.395Z,98394.75
2023-02-19T20:22:56.699Z,98415.09
2023-02-19T20:25:23.931Z,98431.53
2023-02-19T20:27:51.764Z,98425.25
2023-02-19T20:30:19.124Z,98427.31
2023-02-19T20:32:46.299Z,98435.59
2023-02-19T20:35:15.437Z,98443.59
2023-02-19T20:37:42.582Z,98434.44
2023-02-19T20:40:11.532Z,98437.50
2023-02-19T20:42:38.845Z,98435.09
2023-02-19T20:45:06.353Z,98454.78
2023-02-19T20:47:33.530Z,98454.31
2023-02-19T20:50:00.762Z,98459.84
2023-02-19T20:52:29.353Z,98464.03
2023-02-19T20:54:56.671Z,98470.06
2023-02-19T20:57:23.990Z,98474.00
2023-02-19T20:59:51.229Z,98479.75
2023-02-19T21:02:19.726Z,98480.66
2023-02-19T21:04:46.932Z,98481.72
2023-02-19T21:07:14.200Z,98485.47
2023-02-19T21:09:43.450Z,98488.16
2023-02-19T21:12:10.771Z,98495.38
2023-02-19T21:14:37.984Z,98495.53
2023-02-19T21:17:05.415Z,98494.19
2023-02-19T21:19:32.648Z,98481.25
2023-02-19T21:21:59.900Z,98468.44
2023-02-19T21:24:27.161Z,98454.94
2023-02-19T21:26:55.908Z,98462.78
2023-02-19T21:29:23.151Z,98457.47
2023-02-19T21:31:51.159Z,98472.63
2023-02-19T21:34:19.775Z,98475.47
2023-02-19T21:36:47.024Z,98474.50
2023-02-19T21:39:15.477Z,98475.06
2023-02-19T21:41:42.693Z,98487.56
2023-02-19T21:44:11.412Z,98482.31
2023-02-19T21:46:38.629Z,98489.19
2023-02-19T21:49:05.953Z,98486.31
